Andover, Illinois
Current Conditions -  °F | °C
As of 1:52 PM on Saturday 25 Oct 2014 (Local Time) from KMLI Reporting Station
Clear Clear  
Wind Chill: 72°   Ceiling: Unl
Heat Index: 72°   Visibility: 10mi
Dew Point: 39°   Wind: 13mph
Humidity: 30%   Direction: 300°WNW
Pressure: 30.02"   Gusts: NA
Location:  41.29°N, 90.29°W
Report Text: KMLI 251852Z 30011KT 10SM CLR 22/04 A3002 RMK AO2 SLP163 T02220039 $
Loading
Personal Weather Stations






























Interactive Weather Map
Tropical Storm Tracking
New forecast layout! Learn more

10-Day Weather Forecast

Advertisements
Track Severe Weather on mobile